sensor_id;sensor_type;location;lat;lon;timestamp;P1;durP1;ratioP1;P2;durP2;ratioP2
14203;SDS011;7185;51.854;6.622;2024-03-06T00:01:26;45.40;;;26.40;;
14203;SDS011;7185;51.854;6.622;2024-03-06T00:03:58;43.22;;;25.45;;
14203;SDS011;7185;51.854;6.622;2024-03-06T00:06:30;43.50;;;25.88;;
14203;SDS011;7185;51.854;6.622;2024-03-06T00:09:03;43.55;;;26.05;;
14203;SDS011;7185;51.854;6.622;2024-03-06T00:11:35;44.80;;;26.55;;
14203;SDS011;7185;51.854;6.622;2024-03-06T00:14:07;44.58;;;26.83;;
14203;SDS011;7185;51.854;6.622;2024-03-06T00:16:38;46.55;;;27.08;;
14203;SDS011;7185;51.854;6.622;2024-03-06T00:19:10;50.83;;;28.02;;
14203;SDS011;7185;51.854;6.622;2024-03-06T00:21:42;44.17;;;27.10;;
14203;SDS011;7185;51.854;6.622;2024-03-06T00:24:15;42.53;;;26.58;;
14203;SDS011;7185;51.854;6.622;2024-03-06T00:26:47;44.20;;;26.58;;
14203;SDS011;7185;51.854;6.622;2024-03-06T00:29:19;49.28;;;27.95;;
14203;SDS011;7185;51.854;6.622;2024-03-06T00:31:50;47.45;;;26.85;;
14203;SDS011;7185;51.854;6.622;2024-03-06T00:34:22;44.78;;;27.75;;
14203;SDS011;7185;51.854;6.622;2024-03-06T00:36:53;48.63;;;28.55;;
14203;SDS011;7185;51.854;6.622;2024-03-06T00:39:27;45.05;;;26.90;;
14203;SDS011;7185;51.854;6.622;2024-03-06T00:41:58;50.55;;;27.25;;
14203;SDS011;7185;51.854;6.622;2024-03-06T00:44:30;47.10;;;28.15;;
14203;SDS011;7185;51.854;6.622;2024-03-06T00:47:01;46.53;;;27.60;;
14203;SDS011;7185;51.854;6.622;2024-03-06T00:49:33;45.15;;;27.08;;
14203;SDS011;7185;51.854;6.622;2024-03-06T00:52:05;46.65;;;28.80;;
14203;SDS011;7185;51.854;6.622;2024-03-06T00:54:38;48.35;;;28.50;;
14203;SDS011;7185;51.854;6.622;2024-03-06T00:57:09;47.95;;;27.65;;
14203;SDS011;7185;51.854;6.622;2024-03-06T00:59:41;46.13;;;27.58;;
14203;SDS011;7185;51.854;6.622;2024-03-06T01:02:13;50.30;;;29.25;;
14203;SDS011;7185;51.854;6.622;2024-03-06T01:04:44;48.83;;;27.40;;
14203;SDS011;7185;51.854;6.622;2024-03-06T01:07:16;40.95;;;26.05;;
14203;SDS011;7185;51.854;6.622;2024-03-06T01:09:50;45.83;;;27.83;;
14203;SDS011;7185;51.854;6.622;2024-03-06T01:12:22;41.15;;;25.95;;
14203;SDS011;7185;51.854;6.622;2024-03-06T01:14:54;49.72;;;28.77;;
14203;SDS011;7185;51.854;6.622;2024-03-06T01:17:25;43.88;;;27.13;;
14203;SDS011;7185;51.854;6.622;2024-03-06T01:19:57;48.33;;;28.55;;
14203;SDS011;7185;51.854;6.622;2024-03-06T01:22:30;46.85;;;27.92;;
14203;SDS011;7185;51.854;6.622;2024-03-06T01:25:03;44.65;;;27.65;;
14203;SDS011;7185;51.854;6.622;2024-03-06T01:27:37;46.75;;;27.70;;
14203;SDS011;7185;51.854;6.622;2024-03-06T01:30:09;46.90;;;28.33;;
14203;SDS011;7185;51.854;6.622;2024-03-06T01:32:41;45.60;;;28.48;;
14203;SDS011;7185;51.854;6.622;2024-03-06T01:35:13;47.65;;;27.52;;
14203;SDS011;7185;51.854;6.622;2024-03-06T01:37:45;41.63;;;25.60;;
14203;SDS011;7185;51.854;6.622;2024-03-06T01:40:18;52.10;;;27.58;;
14203;SDS011;7185;51.854;6.622;2024-03-06T01:42:49;43.97;;;26.20;;
14203;SDS011;7185;51.854;6.622;2024-03-06T01:45:21;47.65;;;26.67;;
14203;SDS011;7185;51.854;6.622;2024-03-06T01:47:53;50.60;;;28.95;;
14203;SDS011;7185;51.854;6.622;2024-03-06T01:50:25;45.80;;;25.52;;
14203;SDS011;7185;51.854;6.622;2024-03-06T01:52:57;44.55;;;26.73;;
14203;SDS011;7185;51.854;6.622;2024-03-06T01:55:30;46.40;;;27.02;;
14203;SDS011;7185;51.854;6.622;2024-03-06T01:58:02;47.55;;;26.45;;
14203;SDS011;7185;51.854;6.622;2024-03-06T02:00:36;46.25;;;26.95;;
14203;SDS011;7185;51.854;6.622;2024-03-06T02:03:08;47.63;;;26.60;;
14203;SDS011;7185;51.854;6.622;2024-03-06T02:05:41;43.42;;;26.05;;
14203;SDS011;7185;51.854;6.622;2024-03-06T02:08:13;44.78;;;26.35;;
14203;SDS011;7185;51.854;6.622;2024-03-06T02:10:46;51.97;;;28.00;;
14203;SDS011;7185;51.854;6.622;2024-03-06T02:13:18;47.33;;;26.48;;
14203;SDS011;7185;51.854;6.622;2024-03-06T02:15:50;48.08;;;27.67;;
14203;SDS011;7185;51.854;6.622;2024-03-06T02:18:21;44.10;;;27.10;;
14203;SDS011;7185;51.854;6.622;2024-03-06T02:20:54;43.47;;;26.10;;
14203;SDS011;7185;51.854;6.622;2024-03-06T02:23:26;51.25;;;28.73;;
14203;SDS011;7185;51.854;6.622;2024-03-06T02:25:58;47.47;;;27.08;;
14203;SDS011;7185;51.854;6.622;2024-03-06T02:28:29;50.97;;;28.65;;
14203;SDS011;7185;51.854;6.622;2024-03-06T02:31:01;45.38;;;26.88;;
14203;SDS011;7185;51.854;6.622;2024-03-06T02:33:34;47.67;;;27.77;;
14203;SDS011;7185;51.854;6.622;2024-03-06T02:36:07;45.25;;;26.55;;
14203;SDS011;7185;51.854;6.622;2024-03-06T02:38:38;43.90;;;26.95;;
14203;SDS011;7185;51.854;6.622;2024-03-06T02:41:10;43.50;;;26.65;;
14203;SDS011;7185;51.854;6.622;2024-03-06T02:43:45;44.50;;;26.45;;
14203;SDS011;7185;51.854;6.622;2024-03-06T02:46:17;47.58;;;27.33;;
14203;SDS011;7185;51.854;6.622;2024-03-06T02:48:49;43.08;;;26.80;;
14203;SDS011;7185;51.854;6.622;2024-03-06T02:51:22;41.40;;;24.80;;
14203;SDS011;7185;51.854;6.622;2024-03-06T02:53:54;43.25;;;25.88;;
14203;SDS011;7185;51.854;6.622;2024-03-06T02:56:25;40.85;;;25.58;;
14203;SDS011;7185;51.854;6.622;2024-03-06T02:58:57;43.97;;;25.48;;
14203;SDS011;7185;51.854;6.622;2024-03-06T03:01:29;44.00;;;26.05;;
14203;SDS011;7185;51.854;6.622;2024-03-06T03:04:01;43.92;;;26.38;;
14203;SDS011;7185;51.854;6.622;2024-03-06T03:06:34;43.08;;;24.65;;
14203;SDS011;7185;51.854;6.622;2024-03-06T03:09:05;42.15;;;25.02;;
14203;SDS011;7185;51.854;6.622;2024-03-06T03:11:37;38.83;;;23.75;;
14203;SDS011;7185;51.854;6.622;2024-03-06T03:14:09;45.65;;;26.35;;
14203;SDS011;7185;51.854;6.622;2024-03-06T03:16:41;42.45;;;25.85;;
14203;SDS011;7185;51.854;6.622;2024-03-06T03:19:13;40.20;;;24.08;;
14203;SDS011;7185;51.854;6.622;2024-03-06T03:21:46;45.80;;;26.02;;
14203;SDS011;7185;51.854;6.622;2024-03-06T03:24:18;42.92;;;25.08;;
14203;SDS011;7185;51.854;6.622;2024-03-06T03:26:51;44.22;;;25.27;;
14203;SDS011;7185;51.854;6.622;2024-03-06T03:29:23;41.45;;;23.85;;
14203;SDS011;7185;51.854;6.622;2024-03-06T03:31:55;40.05;;;24.23;;
14203;SDS011;7185;51.854;6.622;2024-03-06T03:34:27;36.40;;;22.05;;
14203;SDS011;7185;51.854;6.622;2024-03-06T03:37:00;38.28;;;23.73;;
14203;SDS011;7185;51.854;6.622;2024-03-06T03:39:32;39.75;;;24.23;;
14203;SDS011;7185;51.854;6.622;2024-03-06T03:42:03;39.80;;;24.75;;
14203;SDS011;7185;51.854;6.622;2024-03-06T03:44:36;44.13;;;25.38;;
14203;SDS011;7185;51.854;6.622;2024-03-06T03:47:08;39.28;;;23.85;;
14203;SDS011;7185;51.854;6.622;2024-03-06T03:49:40;41.95;;;24.63;;
14203;SDS011;7185;51.854;6.622;2024-03-06T03:52:14;41.13;;;25.45;;
14203;SDS011;7185;51.854;6.622;2024-03-06T03:54:45;39.05;;;24.35;;
14203;SDS011;7185;51.854;6.622;2024-03-06T03:57:17;39.03;;;24.45;;
14203;SDS011;7185;51.854;6.622;2024-03-06T03:59:49;40.40;;;23.88;;
14203;SDS011;7185;51.854;6.622;2024-03-06T04:02:21;42.83;;;24.75;;
14203;SDS011;7185;51.854;6.622;2024-03-06T04:04:53;42.60;;;25.23;;
14203;SDS011;7185;51.854;6.622;2024-03-06T04:07:26;40.75;;;24.50;;
14203;SDS011;7185;51.854;6.622;2024-03-06T04:09:57;40.58;;;24.88;;
14203;SDS011;7185;51.854;6.622;2024-03-06T04:17:35;39.05;;;24.00;;
14203;SDS011;7185;51.854;6.622;2024-03-06T04:20:07;40.70;;;23.52;;
14203;SDS011;7185;51.854;6.622;2024-03-06T04:22:43;39.50;;;25.58;;
14203;SDS011;7185;51.854;6.622;2024-03-06T04:25:16;38.65;;;25.40;;
14203;SDS011;7185;51.854;6.622;2024-03-06T04:27:48;37.47;;;24.52;;
14203;SDS011;7185;51.854;6.622;2024-03-06T04:30:20;36.25;;;21.98;;
14203;SDS011;7185;51.854;6.622;2024-03-06T04:32:52;32.72;;;21.85;;
14203;SDS011;7185;51.854;6.622;2024-03-06T04:35:24;37.17;;;23.67;;
14203;SDS011;7185;51.854;6.622;2024-03-06T04:37:57;36.90;;;22.33;;
14203;SDS011;7185;51.854;6.622;2024-03-06T04:40:28;32.88;;;21.55;;
14203;SDS011;7185;51.854;6.622;2024-03-06T04:43:00;33.05;;;21.90;;
14203;SDS011;7185;51.854;6.622;2024-03-06T04:45:32;35.78;;;21.50;;
14203;SDS011;7185;51.854;6.622;2024-03-06T04:48:04;33.28;;;20.63;;
14203;SDS011;7185;51.854;6.622;2024-03-06T04:50:37;27.25;;;19.85;;
14203;SDS011;7185;51.854;6.622;2024-03-06T04:53:10;28.08;;;19.70;;
14203;SDS011;7185;51.854;6.622;2024-03-06T04:55:42;29.58;;;20.00;;
14203;SDS011;7185;51.854;6.622;2024-03-06T04:58:13;30.50;;;20.38;;
14203;SDS011;7185;51.854;6.622;2024-03-06T05:00:45;31.73;;;20.60;;
14203;SDS011;7185;51.854;6.622;2024-03-06T05:03:17;31.00;;;20.67;;
14203;SDS011;7185;51.854;6.622;2024-03-06T05:05:49;28.75;;;20.60;;
14203;SDS011;7185;51.854;6.622;2024-03-06T05:08:22;29.92;;;19.90;;
14203;SDS011;7185;51.854;6.622;2024-03-06T05:10:54;27.58;;;19.92;;
14203;SDS011;7185;51.854;6.622;2024-03-06T05:13:26;30.48;;;20.92;;
14203;SDS011;7185;51.854;6.622;2024-03-06T05:15:58;30.67;;;20.98;;
14203;SDS011;7185;51.854;6.622;2024-03-06T05:18:29;34.55;;;22.58;;
14203;SDS011;7185;51.854;6.622;2024-03-06T05:21:01;38.42;;;23.20;;
14203;SDS011;7185;51.854;6.622;2024-03-06T05:23:35;40.25;;;25.95;;
14203;SDS011;7185;51.854;6.622;2024-03-06T05:26:06;38.20;;;24.13;;
14203;SDS011;7185;51.854;6.622;2024-03-06T05:28:39;45.15;;;27.05;;
14203;SDS011;7185;51.854;6.622;2024-03-06T05:31:17;43.92;;;26.13;;
14203;SDS011;7185;51.854;6.622;2024-03-06T05:33:50;46.72;;;27.42;;
14203;SDS011;7185;51.854;6.622;2024-03-06T05:36:22;50.28;;;26.25;;
14203;SDS011;7185;51.854;6.622;2024-03-06T05:38:55;48.72;;;27.67;;
14203;SDS011;7185;51.854;6.622;2024-03-06T05:41:27;46.60;;;26.90;;
14203;SDS011;7185;51.854;6.622;2024-03-06T05:43:59;47.13;;;26.35;;
14203;SDS011;7185;51.854;6.622;2024-03-06T05:46:31;46.63;;;26.88;;
14203;SDS011;7185;51.854;6.622;2024-03-06T05:49:02;48.33;;;26.17;;
14203;SDS011;7185;51.854;6.622;2024-03-06T05:51:34;44.75;;;26.92;;
14203;SDS011;7185;51.854;6.622;2024-03-06T05:54:07;46.75;;;25.95;;
14203;SDS011;7185;51.854;6.622;2024-03-06T05:56:39;43.78;;;25.40;;
14203;SDS011;7185;51.854;6.622;2024-03-06T05:59:12;43.42;;;24.60;;
14203;SDS011;7185;51.854;6.622;2024-03-06T06:01:44;45.63;;;24.63;;
14203;SDS011;7185;51.854;6.622;2024-03-06T06:04:15;45.50;;;25.83;;
14203;SDS011;7185;51.854;6.622;2024-03-06T06:06:47;46.00;;;25.33;;
14203;SDS011;7185;51.854;6.622;2024-03-06T06:09:20;42.10;;;25.75;;
14203;SDS011;7185;51.854;6.622;2024-03-06T06:11:52;45.08;;;25.08;;
14203;SDS011;7185;51.854;6.622;2024-03-06T06:14:24;43.47;;;24.42;;
14203;SDS011;7185;51.854;6.622;2024-03-06T06:16:57;44.47;;;25.67;;
14203;SDS011;7185;51.854;6.622;2024-03-06T06:19:28;44.00;;;24.50;;
14203;SDS011;7185;51.854;6.622;2024-03-06T06:22:00;44.45;;;25.38;;
14203;SDS011;7185;51.854;6.622;2024-03-06T06:24:33;41.80;;;23.55;;
14203;SDS011;7185;51.854;6.622;2024-03-06T06:27:05;40.55;;;23.33;;
14203;SDS011;7185;51.854;6.622;2024-03-06T06:29:37;46.22;;;24.63;;
14203;SDS011;7185;51.854;6.622;2024-03-06T06:32:08;39.75;;;22.83;;
14203;SDS011;7185;51.854;6.622;2024-03-06T06:34:40;46.75;;;26.52;;
14203;SDS011;7185;51.854;6.622;2024-03-06T06:37:12;44.53;;;25.00;;
14203;SDS011;7185;51.854;6.622;2024-03-06T06:39:46;46.55;;;25.38;;
14203;SDS011;7185;51.854;6.622;2024-03-06T06:42:18;46.58;;;25.42;;
14203;SDS011;7185;51.854;6.622;2024-03-06T06:44:50;41.17;;;24.65;;
14203;SDS011;7185;51.854;6.622;2024-03-06T06:47:21;40.00;;;23.30;;
14203;SDS011;7185;51.854;6.622;2024-03-06T06:49:53;41.50;;;23.98;;
14203;SDS011;7185;51.854;6.622;2024-03-06T06:52:25;41.97;;;22.90;;
14203;SDS011;7185;51.854;6.622;2024-03-06T06:54:59;40.22;;;22.95;;
14203;SDS011;7185;51.854;6.622;2024-03-06T06:57:31;41.45;;;22.98;;
14203;SDS011;7185;51.854;6.622;2024-03-06T07:00:04;40.28;;;22.55;;
14203;SDS011;7185;51.854;6.622;2024-03-06T07:02:41;43.20;;;23.88;;
14203;SDS011;7185;51.854;6.622;2024-03-06T07:05:12;44.72;;;25.25;;
14203;SDS011;7185;51.854;6.622;2024-03-06T07:07:44;42.40;;;24.45;;
14203;SDS011;7185;51.854;6.622;2024-03-06T07:10:17;42.67;;;25.42;;
14203;SDS011;7185;51.854;6.622;2024-03-06T07:12:49;43.03;;;25.30;;
14203;SDS011;7185;51.854;6.622;2024-03-06T07:15:21;44.67;;;25.83;;
14203;SDS011;7185;51.854;6.622;2024-03-06T07:17:52;45.72;;;25.48;;
14203;SDS011;7185;51.854;6.622;2024-03-06T07:20:24;47.10;;;28.15;;
14203;SDS011;7185;51.854;6.622;2024-03-06T07:22:56;44.28;;;26.60;;
14203;SDS011;7185;51.854;6.622;2024-03-06T07:25:29;39.67;;;23.80;;
14203;SDS011;7185;51.854;6.622;2024-03-06T07:28:01;42.60;;;25.48;;
14203;SDS011;7185;51.854;6.622;2024-03-06T07:30:32;47.53;;;25.52;;
14203;SDS011;7185;51.854;6.622;2024-03-06T07:33:05;48.60;;;26.88;;
14203;SDS011;7185;51.854;6.622;2024-03-06T07:35:37;47.08;;;26.25;;
14203;SDS011;7185;51.854;6.622;2024-03-06T07:38:09;41.35;;;26.17;;
14203;SDS011;7185;51.854;6.622;2024-03-06T07:40:42;42.47;;;26.15;;
14203;SDS011;7185;51.854;6.622;2024-03-06T07:43:14;41.78;;;26.65;;
14203;SDS011;7185;51.854;6.622;2024-03-06T07:45:45;41.33;;;25.23;;
14203;SDS011;7185;51.854;6.622;2024-03-06T07:48:18;45.50;;;24.83;;
14203;SDS011;7185;51.854;6.622;2024-03-06T07:50:50;38.17;;;24.75;;
14203;SDS011;7185;51.854;6.622;2024-03-06T07:53:22;38.50;;;23.30;;
14203;SDS011;7185;51.854;6.622;2024-03-06T07:55:55;39.30;;;24.85;;
14203;SDS011;7185;51.854;6.622;2024-03-06T07:58:26;42.25;;;24.98;;
14203;SDS011;7185;51.854;6.622;2024-03-06T08:00:58;38.67;;;24.02;;
14203;SDS011;7185;51.854;6.622;2024-03-06T08:03:30;40.80;;;25.13;;
14203;SDS011;7185;51.854;6.622;2024-03-06T08:06:02;37.92;;;24.25;;
14203;SDS011;7185;51.854;6.622;2024-03-06T08:08:34;40.70;;;25.95;;
14203;SDS011;7185;51.854;6.622;2024-03-06T08:11:07;36.63;;;23.88;;
14203;SDS011;7185;51.854;6.622;2024-03-06T08:13:40;37.97;;;24.48;;
14203;SDS011;7185;51.854;6.622;2024-03-06T08:16:12;35.40;;;23.08;;
14203;SDS011;7185;51.854;6.622;2024-03-06T08:18:44;34.78;;;22.52;;
14203;SDS011;7185;51.854;6.622;2024-03-06T08:21:16;33.95;;;21.45;;
14203;SDS011;7185;51.854;6.622;2024-03-06T08:23:48;35.05;;;22.50;;
14203;SDS011;7185;51.854;6.622;2024-03-06T08:26:21;34.70;;;21.60;;
14203;SDS011;7185;51.854;6.622;2024-03-06T08:28:54;35.13;;;21.85;;
14203;SDS011;7185;51.854;6.622;2024-03-06T08:31:25;37.65;;;23.92;;
14203;SDS011;7185;51.854;6.622;2024-03-06T08:33:57;37.15;;;22.45;;
14203;SDS011;7185;51.854;6.622;2024-03-06T08:36:29;36.83;;;24.35;;
14203;SDS011;7185;51.854;6.622;2024-03-06T08:39:00;37.85;;;24.10;;
14203;SDS011;7185;51.854;6.622;2024-03-06T08:41:33;36.00;;;23.10;;
14203;SDS011;7185;51.854;6.622;2024-03-06T08:44:05;41.22;;;25.00;;
14203;SDS011;7185;51.854;6.622;2024-03-06T08:46:37;39.28;;;24.65;;
14203;SDS011;7185;51.854;6.622;2024-03-06T08:49:08;36.33;;;23.77;;
14203;SDS011;7185;51.854;6.622;2024-03-06T08:51:41;31.75;;;20.88;;
14203;SDS011;7185;51.854;6.622;2024-03-06T08:54:12;38.75;;;24.40;;
14203;SDS011;7185;51.854;6.622;2024-03-06T08:56:45;39.20;;;25.30;;
14203;SDS011;7185;51.854;6.622;2024-03-06T08:59:18;37.45;;;24.88;;
14203;SDS011;7185;51.854;6.622;2024-03-06T09:01:51;37.97;;;25.15;;
14203;SDS011;7185;51.854;6.622;2024-03-06T09:04:26;38.83;;;24.60;;
14203;SDS011;7185;51.854;6.622;2024-03-06T09:06:59;37.85;;;24.58;;
14203;SDS011;7185;51.854;6.622;2024-03-06T09:09:31;36.55;;;23.77;;
14203;SDS011;7185;51.854;6.622;2024-03-06T09:12:09;36.58;;;24.58;;
14203;SDS011;7185;51.854;6.622;2024-03-06T09:14:45;30.67;;;21.52;;
14203;SDS011;7185;51.854;6.622;2024-03-06T09:17:20;34.90;;;23.70;;
14203;SDS011;7185;51.854;6.622;2024-03-06T09:19:52;38.78;;;24.00;;
14203;SDS011;7185;51.854;6.622;2024-03-06T09:22:25;37.85;;;24.98;;
14203;SDS011;7185;51.854;6.622;2024-03-06T09:24:57;35.67;;;23.92;;
14203;SDS011;7185;51.854;6.622;2024-03-06T09:27:31;40.33;;;26.15;;
14203;SDS011;7185;51.854;6.622;2024-03-06T09:30:03;35.35;;;23.45;;
14203;SDS011;7185;51.854;6.622;2024-03-06T09:32:39;36.38;;;25.00;;
14203;SDS011;7185;51.854;6.622;2024-03-06T09:35:16;36.60;;;25.70;;
14203;SDS011;7185;51.854;6.622;2024-03-06T09:37:49;39.30;;;26.38;;
14203;SDS011;7185;51.854;6.622;2024-03-06T09:40:22;36.38;;;25.33;;
14203;SDS011;7185;51.854;6.622;2024-03-06T09:42:56;38.83;;;25.92;;
14203;SDS011;7185;51.854;6.622;2024-03-06T09:45:29;38.15;;;25.90;;
14203;SDS011;7185;51.854;6.622;2024-03-06T09:48:01;39.75;;;26.58;;
14203;SDS011;7185;51.854;6.622;2024-03-06T09:50:39;44.00;;;29.52;;
14203;SDS011;7185;51.854;6.622;2024-03-06T09:53:23;38.80;;;26.35;;
14203;SDS011;7185;51.854;6.622;2024-03-06T09:55:55;39.45;;;26.98;;
14203;SDS011;7185;51.854;6.622;2024-03-06T09:58:32;37.03;;;23.88;;
14203;SDS011;7185;51.854;6.622;2024-03-06T10:01:04;43.08;;;28.95;;
14203;SDS011;7185;51.854;6.622;2024-03-06T10:03:37;43.83;;;29.58;;
14203;SDS011;7185;51.854;6.622;2024-03-06T10:06:10;44.97;;;30.10;;
14203;SDS011;7185;51.854;6.622;2024-03-06T10:08:42;50.45;;;34.10;;
14203;SDS011;7185;51.854;6.622;2024-03-06T10:11:19;57.03;;;35.15;;
14203;SDS011;7185;51.854;6.622;2024-03-06T10:13:53;49.83;;;33.05;;
14203;SDS011;7185;51.854;6.622;2024-03-06T10:16:25;55.88;;;35.08;;
14203;SDS011;7185;51.854;6.622;2024-03-06T10:19:13;57.83;;;37.47;;
14203;SDS011;7185;51.854;6.622;2024-03-06T10:21:48;71.43;;;41.20;;
14203;SDS011;7185;51.854;6.622;2024-03-06T10:24:22;71.60;;;40.15;;
14203;SDS011;7185;51.854;6.622;2024-03-06T10:26:55;75.38;;;42.40;;
14203;SDS011;7185;51.854;6.622;2024-03-06T10:29:31;70.88;;;40.88;;
14203;SDS011;7185;51.854;6.622;2024-03-06T10:32:05;64.35;;;37.42;;
14203;SDS011;7185;51.854;6.622;2024-03-06T10:34:39;78.72;;;41.85;;
14203;SDS011;7185;51.854;6.622;2024-03-06T10:37:14;64.60;;;38.55;;
14203;SDS011;7185;51.854;6.622;2024-03-06T10:39:56;70.63;;;39.10;;
14203;SDS011;7185;51.854;6.622;2024-03-06T10:42:47;67.72;;;39.80;;
14203;SDS011;7185;51.854;6.622;2024-03-06T10:45:25;65.53;;;39.50;;
14203;SDS011;7185;51.854;6.622;2024-03-06T10:48:22;65.28;;;39.88;;
14203;SDS011;7185;51.854;6.622;2024-03-06T10:51:01;69.43;;;41.10;;
14203;SDS011;7185;51.854;6.622;2024-03-06T10:53:35;59.58;;;38.65;;
14203;SDS011;7185;51.854;6.622;2024-03-06T10:56:09;61.17;;;37.97;;
14203;SDS011;7185;51.854;6.622;2024-03-06T10:58:45;64.55;;;40.92;;
14203;SDS011;7185;51.854;6.622;2024-03-06T11:01:25;57.50;;;39.17;;
14203;SDS011;7185;51.854;6.622;2024-03-06T11:04:07;58.83;;;39.50;;
14203;SDS011;7185;51.854;6.622;2024-03-06T11:06:50;57.85;;;38.83;;
14203;SDS011;7185;51.854;6.622;2024-03-06T11:09:25;55.60;;;38.45;;
14203;SDS011;7185;51.854;6.622;2024-03-06T11:11:59;68.07;;;44.55;;
14203;SDS011;7185;51.854;6.622;2024-03-06T11:14:36;64.50;;;41.47;;
14203;SDS011;7185;51.854;6.622;2024-03-06T11:17:14;62.05;;;42.75;;
14203;SDS011;7185;51.854;6.622;2024-03-06T11:23:03;60.70;;;42.75;;
14203;SDS011;7185;51.854;6.622;2024-03-06T11:25:59;59.50;;;40.88;;
14203;SDS011;7185;51.854;6.622;2024-03-06T11:28:36;69.47;;;44.97;;
14203;SDS011;7185;51.854;6.622;2024-03-06T11:31:11;60.13;;;38.70;;
14203;SDS011;7185;51.854;6.622;2024-03-06T11:33:52;62.00;;;41.67;;
14203;SDS011;7185;51.854;6.622;2024-03-06T11:36:26;64.97;;;43.15;;
14203;SDS011;7185;51.854;6.622;2024-03-06T11:39:01;61.28;;;41.40;;
14203;SDS011;7185;51.854;6.622;2024-03-06T11:41:46;52.70;;;36.63;;
14203;SDS011;7185;51.854;6.622;2024-03-06T11:44:27;41.55;;;30.23;;
14203;SDS011;7185;51.854;6.622;2024-03-06T11:47:00;51.30;;;35.17;;
14203;SDS011;7185;51.854;6.622;2024-03-06T11:49:35;44.22;;;31.27;;
14203;SDS011;7185;51.854;6.622;2024-03-06T11:52:20;39.15;;;28.05;;
14203;SDS011;7185;51.854;6.622;2024-03-06T11:55:02;48.20;;;32.47;;
14203;SDS011;7185;51.854;6.622;2024-03-06T11:57:39;41.25;;;27.40;;
14203;SDS011;7185;51.854;6.622;2024-03-06T12:00:14;45.40;;;32.23;;
14203;SDS011;7185;51.854;6.622;2024-03-06T12:02:49;38.53;;;27.48;;
14203;SDS011;7185;51.854;6.622;2024-03-06T12:05:28;28.27;;;21.45;;
14203;SDS011;7185;51.854;6.622;2024-03-06T12:08:14;43.67;;;28.83;;
14203;SDS011;7185;51.854;6.622;2024-03-06T12:10:59;34.45;;;25.73;;
14203;SDS011;7185;51.854;6.622;2024-03-06T12:13:41;37.75;;;25.73;;
14203;SDS011;7185;51.854;6.622;2024-03-06T12:20:01;31.45;;;21.88;;
14203;SDS011;7185;51.854;6.622;2024-03-06T12:25:28;11.85;;;8.05;;
14203;SDS011;7185;51.854;6.622;2024-03-06T12:28:06;22.88;;;15.30;;
14203;SDS011;7185;51.854;6.622;2024-03-06T12:30:41;28.73;;;19.67;;
14203;SDS011;7185;51.854;6.622;2024-03-06T12:33:16;22.70;;;16.33;;
14203;SDS011;7185;51.854;6.622;2024-03-06T12:35:48;26.48;;;17.27;;
14203;SDS011;7185;51.854;6.622;2024-03-06T12:38:33;31.75;;;22.42;;
14203;SDS011;7185;51.854;6.622;2024-03-06T12:41:05;36.20;;;24.77;;
14203;SDS011;7185;51.854;6.622;2024-03-06T12:43:37;36.38;;;25.58;;
14203;SDS011;7185;51.854;6.622;2024-03-06T12:46:15;35.20;;;24.17;;
14203;SDS011;7185;51.854;6.622;2024-03-06T12:49:03;37.58;;;25.40;;
14203;SDS011;7185;51.854;6.622;2024-03-06T12:51:44;39.28;;;27.95;;
14203;SDS011;7185;51.854;6.622;2024-03-06T12:54:26;35.47;;;27.60;;
14203;SDS011;7185;51.854;6.622;2024-03-06T12:57:09;37.38;;;29.20;;
14203;SDS011;7185;51.854;6.622;2024-03-06T13:00:02;43.15;;;31.20;;
14203;SDS011;7185;51.854;6.622;2024-03-06T13:02:37;38.90;;;29.48;;
14203;SDS011;7185;51.854;6.622;2024-03-06T13:05:11;35.05;;;27.60;;
14203;SDS011;7185;51.854;6.622;2024-03-06T13:07:49;32.67;;;26.17;;
14203;SDS011;7185;51.854;6.622;2024-03-06T13:10:27;34.83;;;27.77;;
14203;SDS011;7185;51.854;6.622;2024-03-06T13:13:00;33.80;;;26.90;;
14203;SDS011;7185;51.854;6.622;2024-03-06T13:15:32;36.33;;;26.50;;
14203;SDS011;7185;51.854;6.622;2024-03-06T13:18:04;36.80;;;28.33;;
14203;SDS011;7185;51.854;6.622;2024-03-06T13:20:37;39.78;;;29.73;;
14203;SDS011;7185;51.854;6.622;2024-03-06T13:23:12;46.05;;;32.58;;
14203;SDS011;7185;51.854;6.622;2024-03-06T13:25:52;47.22;;;31.95;;
14203;SDS011;7185;51.854;6.622;2024-03-06T13:28:24;50.63;;;33.40;;
14203;SDS011;7185;51.854;6.622;2024-03-06T13:30:57;42.38;;;29.30;;
14203;SDS011;7185;51.854;6.622;2024-03-06T13:33:29;44.40;;;29.48;;
14203;SDS011;7185;51.854;6.622;2024-03-06T13:36:04;40.35;;;29.38;;
14203;SDS011;7185;51.854;6.622;2024-03-06T13:38:37;42.90;;;30.42;;
14203;SDS011;7185;51.854;6.622;2024-03-06T13:41:10;42.25;;;29.85;;
14203;SDS011;7185;51.854;6.622;2024-03-06T13:43:42;41.67;;;28.17;;
14203;SDS011;7185;51.854;6.622;2024-03-06T13:46:19;45.38;;;29.55;;
14203;SDS011;7185;51.854;6.622;2024-03-06T13:48:51;52.13;;;32.78;;
14203;SDS011;7185;51.854;6.622;2024-03-06T13:51:23;47.78;;;32.20;;
14203;SDS011;7185;51.854;6.622;2024-03-06T13:53:56;49.22;;;32.72;;
14203;SDS011;7185;51.854;6.622;2024-03-06T13:56:29;49.70;;;32.35;;
14203;SDS011;7185;51.854;6.622;2024-03-06T13:59:01;45.17;;;30.60;;
14203;SDS011;7185;51.854;6.622;2024-03-06T14:01:34;43.03;;;28.60;;
14203;SDS011;7185;51.854;6.622;2024-03-06T14:04:08;41.13;;;28.08;;
14203;SDS011;7185;51.854;6.622;2024-03-06T14:06:42;39.20;;;27.90;;
14203;SDS011;7185;51.854;6.622;2024-03-06T14:09:19;37.13;;;26.10;;
14203;SDS011;7185;51.854;6.622;2024-03-06T14:11:55;38.08;;;27.40;;
14203;SDS011;7185;51.854;6.622;2024-03-06T14:14:27;39.28;;;27.40;;
14203;SDS011;7185;51.854;6.622;2024-03-06T14:17:03;33.78;;;24.73;;
14203;SDS011;7185;51.854;6.622;2024-03-06T14:19:35;38.88;;;26.52;;
14203;SDS011;7185;51.854;6.622;2024-03-06T14:22:12;37.08;;;25.95;;
14203;SDS011;7185;51.854;6.622;2024-03-06T14:24:44;33.58;;;23.73;;
14203;SDS011;7185;51.854;6.622;2024-03-06T14:27:20;34.10;;;23.48;;
14203;SDS011;7185;51.854;6.622;2024-03-06T14:29:53;32.63;;;23.48;;
14203;SDS011;7185;51.854;6.622;2024-03-06T14:32:25;30.80;;;22.55;;
14203;SDS011;7185;51.854;6.622;2024-03-06T14:34:58;28.10;;;20.95;;
14203;SDS011;7185;51.854;6.622;2024-03-06T14:37:30;26.63;;;19.73;;
14203;SDS011;7185;51.854;6.622;2024-03-06T14:43:15;24.13;;;19.20;;
14203;SDS011;7185;51.854;6.622;2024-03-06T14:45:58;28.17;;;20.15;;
14203;SDS011;7185;51.854;6.622;2024-03-06T14:51:12;26.05;;;20.48;;
14203;SDS011;7185;51.854;6.622;2024-03-06T14:53:55;27.42;;;20.88;;
14203;SDS011;7185;51.854;6.622;2024-03-06T14:56:35;24.73;;;20.20;;
14203;SDS011;7185;51.854;6.622;2024-03-06T14:59:46;26.02;;;19.38;;
14203;SDS011;7185;51.854;6.622;2024-03-06T15:02:21;26.48;;;21.00;;
14203;SDS011;7185;51.854;6.622;2024-03-06T15:04:53;26.13;;;21.35;;
14203;SDS011;7185;51.854;6.622;2024-03-06T15:07:24;27.55;;;20.58;;
14203;SDS011;7185;51.854;6.622;2024-03-06T15:09:56;27.92;;;20.77;;
14203;SDS011;7185;51.854;6.622;2024-03-06T15:12:33;24.70;;;20.25;;
14203;SDS011;7185;51.854;6.622;2024-03-06T15:15:10;27.23;;;19.40;;
14203;SDS011;7185;51.854;6.622;2024-03-06T15:17:42;25.73;;;19.90;;
14203;SDS011;7185;51.854;6.622;2024-03-06T15:20:16;29.35;;;20.33;;
14203;SDS011;7185;51.854;6.622;2024-03-06T15:22:50;27.85;;;22.00;;
14203;SDS011;7185;51.854;6.622;2024-03-06T15:25:23;27.25;;;19.63;;
14203;SDS011;7185;51.854;6.622;2024-03-06T15:27:55;26.30;;;20.48;;
14203;SDS011;7185;51.854;6.622;2024-03-06T15:30:29;26.88;;;20.73;;
14203;SDS011;7185;51.854;6.622;2024-03-06T15:33:04;31.27;;;21.45;;